Airfield :







YOU CAN JOIN US ON...

 
LOGIN :

Register | Disclaimer

   EN    FR    IT 

 









Legend :    VFR   Marginal VFR   IFR   Intensive IFR   Very Intensive IFR
Visi :
Ceiling :
>= 8 km
>= 3000ft
5 to 8 km
1000 to 3000 ft
1500m to 5 km
500 to 1000 ft
800 to 1500m
200 to 500 ft
< 800m
< 200 ft
Symbols :   Thunderstorms  Fog  Heavy snow  Heavy precipitations  Wind > 20 kt






- Airport Elevation : 100 ft
- IATA code : PSM


KPSM - Portsmouth International at Pease

CURRENT METAR :
  • 272156Z 29008KT 10SM SCT050 OVC080 05/M03 A2954 RMK AO2A SLP007 T00521031

EXPIRED METARs :
  • 272056Z 29008KT 10SM SCT045 OVC080 06/M04 A2952 RMK AO2A SLP000 T00591040 53005
  • 271956Z 27008KT 10SM BKN048 BKN060 06/M04 A2950 RMK AO2A SLP993 T00611041

TAF KPSM
Valid from the 27 at 18:00 until the 28 at 18:00 UTC


271720Z 2718/2818 26010KT P6SM SCT040
FM280000 28008KT P6SM SKC
FM281000 32007KT P6SM BKN035



MET'MAP, your aeronautical weather chart ! - Copyright ORBIFLY December 2007 - Disclaimer

ORBIFLY MET'MAP TEAM :

Programming & Development : Alexandra Zaïnal
Concept & original design : Baudouin d'Aumeries
Assistance for programming : Marc-Olivier Méhu
Technical & hardware support : Manuel Goepfert

Contact : metmap@orbifly.com




SOURCES & CREDITS :

   NOAA